createdAt,value
2023-01-21T00:00:19.090Z,17.70
2023-01-21T00:02:46.268Z,17.51
2023-01-21T00:05:12.471Z,17.34
2023-01-21T00:07:38.654Z,17.14
2023-01-21T00:10:04.897Z,16.99
2023-01-21T00:12:31.761Z,16.83
2023-01-21T00:14:58.199Z,16.66
2023-01-21T00:17:24.641Z,16.52
2023-01-21T00:19:51.463Z,16.38
2023-01-21T00:22:17.867Z,16.25
2023-01-21T00:24:44.060Z,16.12
2023-01-21T00:27:10.263Z,15.99
2023-01-21T00:29:36.475Z,15.84
2023-01-21T00:32:02.717Z,15.69
2023-01-21T00:34:28.933Z,15.56
2023-01-21T00:36:56.544Z,15.43
2023-01-21T00:39:23.846Z,15.30
2023-01-21T00:41:50.069Z,15.15
2023-01-21T00:44:16.406Z,15.01
2023-01-21T00:46:42.776Z,14.87
2023-01-21T00:49:09.016Z,14.74
2023-01-21T00:51:37.279Z,14.61
2023-01-21T00:54:04.009Z,14.49
2023-01-21T00:56:30.308Z,14.37
2023-01-21T00:58:56.523Z,14.26
2023-01-21T01:01:22.877Z,14.13
2023-01-21T01:03:49.225Z,14.03
2023-01-21T01:06:15.467Z,13.92
2023-01-21T01:08:42.374Z,13.81
2023-01-21T01:11:08.626Z,13.71
2023-01-21T01:13:34.899Z,13.62
2023-01-21T01:16:01.236Z,13.51
2023-01-21T01:18:27.623Z,13.41
2023-01-21T01:20:53.874Z,13.32
2023-01-21T01:23:20.073Z,13.23
2023-01-21T01:25:46.590Z,13.13
2023-01-21T01:28:12.848Z,13.05
2023-01-21T01:30:39.922Z,12.98
2023-01-21T01:33:06.119Z,12.91
2023-01-21T01:35:32.312Z,12.84
2023-01-21T01:37:58.497Z,12.69
2023-01-21T01:40:24.716Z,12.68
2023-01-21T01:42:52.486Z,12.61
2023-01-21T01:45:18.726Z,12.52
2023-01-21T01:47:45.034Z,12.44
2023-01-21T01:50:11.424Z,12.37
2023-01-21T01:52:37.723Z,12.32
2023-01-21T01:55:04.091Z,12.24
2023-01-21T01:57:30.453Z,12.17
2023-01-21T01:59:56.934Z,12.12
2023-01-21T02:02:23.527Z,12.06
2023-01-21T02:04:50.147Z,11.99
2023-01-21T02:07:17.211Z,11.95
2023-01-21T02:09:43.731Z,11.89
2023-01-21T02:12:10.289Z,11.81
2023-01-21T02:14:36.437Z,11.75
2023-01-21T02:17:02.675Z,11.70
2023-01-21T02:19:28.920Z,11.62
2023-01-21T02:21:57.265Z,11.56
2023-01-21T02:24:23.534Z,11.51
2023-01-21T02:26:49.782Z,11.46
2023-01-21T02:29:16.683Z,11.39
2023-01-21T02:31:42.979Z,11.33
2023-01-21T02:34:09.268Z,11.28
2023-01-21T02:36:35.514Z,11.22
2023-01-21T02:39:02.029Z,11.17
2023-01-21T02:41:28.268Z,11.11
2023-01-21T02:43:54.719Z,11.06
2023-01-21T02:46:21.261Z,11.00
2023-01-21T02:48:47.494Z,10.94
2023-01-21T02:51:13.769Z,10.89
2023-01-21T02:53:39.985Z,10.85
2023-01-21T02:56:06.206Z,10.79
2023-01-21T02:58:32.400Z,10.74
2023-01-21T03:00:58.675Z,10.68
2023-01-21T03:03:25.473Z,10.63
2023-01-21T03:05:52.134Z,10.58
2023-01-21T03:08:18.968Z,10.53
2023-01-21T03:10:45.256Z,10.48
2023-01-21T03:13:11.436Z,10.43
2023-01-21T03:15:37.932Z,10.40
2023-01-21T03:18:04.718Z,10.35
2023-01-21T03:20:31.476Z,10.32
2023-01-21T03:22:57.664Z,10.27
2023-01-21T03:25:24.152Z,10.23
2023-01-21T03:27:50.467Z,10.19
2023-01-21T03:30:17.060Z,10.14
2023-01-21T03:32:43.513Z,10.10
2023-01-21T03:35:10.247Z,10.06
2023-01-21T03:37:36.435Z,10.03
2023-01-21T03:40:02.731Z,10.00
2023-01-21T03:42:29.379Z,9.97
2023-01-21T03:44:55.982Z,9.92
2023-01-21T03:47:22.171Z,9.89
2023-01-21T03:49:48.529Z,9.85
2023-01-21T03:52:14.760Z,9.82
2023-01-21T03:54:41.227Z,9.80
2023-01-21T03:57:07.467Z,9.78
2023-01-21T03:59:33.733Z,9.75
2023-01-21T04:02:00.006Z,9.71
2023-01-21T04:04:26.227Z,9.68
2023-01-21T04:06:53.282Z,9.66
2023-01-21T04:09:19.511Z,9.64
2023-01-21T04:11:45.704Z,9.62
2023-01-21T04:14:12.867Z,9.60
2023-01-21T04:16:40.013Z,9.57
2023-01-21T04:19:06.289Z,9.55
2023-01-21T04:21:32.506Z,9.53
2023-01-21T04:23:59.429Z,9.50
2023-01-21T04:26:25.667Z,9.49
2023-01-21T04:28:51.936Z,9.46
2023-01-21T04:31:18.488Z,9.45
2023-01-21T04:33:44.760Z,9.42
2023-01-21T04:36:11.029Z,9.39
2023-01-21T04:38:37.456Z,9.38
2023-01-21T04:41:03.711Z,9.35
2023-01-21T04:43:30.332Z,9.34
2023-01-21T04:45:56.650Z,9.32
2023-01-21T04:48:22.885Z,9.31
2023-01-21T04:50:49.274Z,9.30
2023-01-21T04:53:15.522Z,9.28
2023-01-21T04:55:41.755Z,9.28
2023-01-21T04:58:08.476Z,9.26
2023-01-21T05:00:35.699Z,9.24
2023-01-21T05:03:01.898Z,9.22
2023-01-21T05:05:28.111Z,9.21
2023-01-21T05:07:54.508Z,9.19
2023-01-21T05:10:21.596Z,9.18
2023-01-21T05:12:47.843Z,9.15
2023-01-21T05:15:14.071Z,9.15
2023-01-21T05:17:40.369Z,9.13
2023-01-21T05:20:06.565Z,9.11
2023-01-21T05:22:32.780Z,9.10
2023-01-21T05:24:59.368Z,8.99
2023-01-21T05:27:26.052Z,9.08
2023-01-21T05:29:52.263Z,9.07
2023-01-21T05:32:18.504Z,9.06
2023-01-21T05:34:44.719Z,9.05
2023-01-21T05:37:10.938Z,9.04
2023-01-21T05:39:37.162Z,9.05
2023-01-21T05:42:03.437Z,9.03
2023-01-21T05:44:29.769Z,9.03
2023-01-21T05:46:56.182Z,9.03
2023-01-21T05:49:22.504Z,9.02
2023-01-21T05:51:49.280Z,9.02
2023-01-21T05:54:15.529Z,9.00
2023-01-21T05:56:41.832Z,8.94
2023-01-21T05:59:08.441Z,9.00
2023-01-21T06:01:34.872Z,9.01
2023-01-21T06:04:01.469Z,8.99
2023-01-21T06:06:28.578Z,9.00
2023-01-21T06:08:54.775Z,8.99
2023-01-21T06:11:21.003Z,8.99
2023-01-21T06:13:47.232Z,8.97
2023-01-21T06:16:13.537Z,8.97
2023-01-21T06:18:40.293Z,8.96
2023-01-21T06:21:06.505Z,8.96
2023-01-21T06:23:33.465Z,8.95
2023-01-21T06:25:59.792Z,8.95
2023-01-21T06:28:26.138Z,8.94
2023-01-21T06:30:52.402Z,8.93
2023-01-21T06:33:19.459Z,8.93
2023-01-21T06:35:46.019Z,8.92
2023-01-21T06:38:13.474Z,8.92
2023-01-21T06:40:39.791Z,8.91
2023-01-21T06:43:05.972Z,8.89
2023-01-21T06:45:32.828Z,8.89
2023-01-21T06:47:59.064Z,8.89
2023-01-21T06:50:25.362Z,8.87
2023-01-21T06:52:51.563Z,8.86
2023-01-21T06:55:17.834Z,8.86
2023-01-21T06:57:44.044Z,8.86
2023-01-21T07:00:10.479Z,8.85
2023-01-21T07:02:36.759Z,8.85
2023-01-21T07:05:03.411Z,8.84
2023-01-21T07:07:32.694Z,8.84
2023-01-21T07:09:58.933Z,8.84
2023-01-21T07:12:25.151Z,8.82
2023-01-21T07:14:51.432Z,8.81
2023-01-21T07:17:18.479Z,8.81
2023-01-21T07:19:44.764Z,8.81
2023-01-21T07:22:11.074Z,8.84
2023-01-21T07:24:37.400Z,9.05
2023-01-21T07:27:04.496Z,9.68
2023-01-21T07:29:31.197Z,10.31
2023-01-21T07:31:57.527Z,10.88
2023-01-21T07:34:23.750Z,11.33
2023-01-21T07:36:49.988Z,11.72
2023-01-21T07:39:16.230Z,12.01
2023-01-21T07:41:42.532Z,12.26
2023-01-21T07:44:09.520Z,12.46
2023-01-21T07:46:35.745Z,12.64
2023-01-21T07:49:01.992Z,12.82
2023-01-21T07:51:28.260Z,12.96
2023-01-21T07:53:54.515Z,13.15
2023-01-21T07:56:21.017Z,13.38
2023-01-21T07:58:47.219Z,13.61
2023-01-21T08:01:14.402Z,13.79
2023-01-21T08:03:40.788Z,13.92
2023-01-21T08:06:07.074Z,14.01
2023-01-21T08:08:33.272Z,14.11
2023-01-21T08:10:59.532Z,14.24
2023-01-21T08:13:26.075Z,14.37
2023-01-21T08:15:52.387Z,14.48
2023-01-21T08:18:19.406Z,14.60
2023-01-21T08:20:45.581Z,14.76
2023-01-21T08:23:11.853Z,14.90
2023-01-21T08:25:38.036Z,15.02
2023-01-21T08:28:04.237Z,15.13
2023-01-21T08:30:30.442Z,15.22
2023-01-21T08:32:56.625Z,15.36
2023-01-21T08:35:22.835Z,15.48
2023-01-21T08:37:49.304Z,15.61
2023-01-21T08:40:15.690Z,15.73
2023-01-21T08:42:42.017Z,15.85
2023-01-21T08:45:08.535Z,15.95
2023-01-21T08:47:34.790Z,16.04
2023-01-21T08:50:01.560Z,16.10
2023-01-21T08:52:27.817Z,16.19
2023-01-21T08:54:54.149Z,16.31
2023-01-21T08:57:20.411Z,16.39
2023-01-21T08:59:46.647Z,16.47
2023-01-21T09:02:13.075Z,16.58
2023-01-21T09:04:39.317Z,16.63
2023-01-21T09:07:06.399Z,16.69
2023-01-21T09:09:32.685Z,16.77
2023-01-21T09:12:02.190Z,16.84
2023-01-21T09:14:28.395Z,16.92
2023-01-21T09:16:54.663Z,17.01
2023-01-21T09:19:21.852Z,17.07
2023-01-21T09:21:48.072Z,17.13
2023-01-21T09:24:15.047Z,17.16
2023-01-21T09:26:41.301Z,17.23
2023-01-21T09:29:07.945Z,17.24
2023-01-21T09:31:34.258Z,17.25
2023-01-21T09:34:00.595Z,17.28
2023-01-21T09:36:26.816Z,17.35
2023-01-21T09:38:53.077Z,17.40
2023-01-21T09:41:19.309Z,17.43
2023-01-21T09:43:46.365Z,17.46
2023-01-21T09:46:12.631Z,17.48
2023-01-21T09:48:38.877Z,17.48
2023-01-21T09:51:05.140Z,17.45
2023-01-21T09:53:31.433Z,17.44
2023-01-21T09:55:57.821Z,17.44
2023-01-21T09:58:24.322Z,17.46
2023-01-21T10:00:51.609Z,17.51
2023-01-21T10:03:17.878Z,17.59
2023-01-21T10:05:44.549Z,17.65
2023-01-21T10:08:11.548Z,17.72
2023-01-21T10:10:38.113Z,17.84
2023-01-21T10:13:04.457Z,17.97
2023-01-21T10:15:31.539Z,18.08
2023-01-21T10:17:57.988Z,18.18
2023-01-21T10:20:24.983Z,18.26
2023-01-21T10:22:51.191Z,18.32
2023-01-21T10:25:17.722Z,18.36
2023-01-21T10:27:44.223Z,18.41
2023-01-21T10:30:10.894Z,18.49
2023-01-21T10:32:37.125Z,18.59
2023-01-21T10:35:03.519Z,18.66
2023-01-21T10:37:30.065Z,18.68
2023-01-21T10:39:56.302Z,18.74
2023-01-21T10:42:22.972Z,18.84
2023-01-21T10:44:49.412Z,18.90
2023-01-21T10:47:16.107Z,18.90
2023-01-21T10:49:42.445Z,18.92
2023-01-21T10:52:08.655Z,18.99
2023-01-21T10:54:34.899Z,19.04
2023-01-21T10:57:01.184Z,19.09
2023-01-21T10:59:27.418Z,19.13
2023-01-21T11:01:53.746Z,19.18
2023-01-21T11:04:20.118Z,19.24
2023-01-21T11:06:46.328Z,19.27
2023-01-21T11:09:12.641Z,19.28
2023-01-21T11:11:39.313Z,19.32
2023-01-21T11:14:06.014Z,19.36
2023-01-21T11:16:32.324Z,19.40
2023-01-21T11:18:59.424Z,19.44
2023-01-21T11:21:25.702Z,19.47
2023-01-21T11:23:52.004Z,19.52
2023-01-21T11:26:18.241Z,19.57
2023-01-21T11:28:44.480Z,19.62
2023-01-21T11:31:11.408Z,19.64
2023-01-21T11:33:37.670Z,19.63
2023-01-21T11:36:03.886Z,19.60
2023-01-21T11:38:30.180Z,19.58
2023-01-21T11:40:56.501Z,19.55
2023-01-21T11:43:25.017Z,19.55
2023-01-21T11:45:51.241Z,19.55
2023-01-21T11:48:17.517Z,19.59
2023-01-21T11:50:43.849Z,19.63
2023-01-21T11:53:10.057Z,19.67
2023-01-21T11:55:36.454Z,19.72
2023-01-21T11:58:02.655Z,19.79
2023-01-21T12:00:28.855Z,19.85
2023-01-21T12:02:55.280Z,19.88
2023-01-21T12:05:21.582Z,19.91
2023-01-21T12:07:49.745Z,19.89
2023-01-21T12:10:16.277Z,19.84
2023-01-21T12:12:43.428Z,19.79
2023-01-21T12:15:09.801Z,19.75
2023-01-21T12:17:38.432Z,19.68
2023-01-21T12:20:06.118Z,19.66
2023-01-21T12:22:32.365Z,19.65
2023-01-21T12:24:58.637Z,19.65
2023-01-21T12:27:24.935Z,19.66
2023-01-21T12:29:51.832Z,19.70
2023-01-21T12:32:18.038Z,19.75
2023-01-21T12:34:44.484Z,19.80
2023-01-21T12:37:10.700Z,19.87
2023-01-21T12:39:36.889Z,19.94
2023-01-21T12:42:03.962Z,19.97
2023-01-21T12:44:30.173Z,19.97
2023-01-21T12:46:56.579Z,19.93
2023-01-21T12:49:23.100Z,19.91
2023-01-21T12:51:49.335Z,19.90
2023-01-21T12:54:16.566Z,19.90
2023-01-21T12:56:43.056Z,19.91
2023-01-21T12:59:09.321Z,19.95
2023-01-21T13:01:35.690Z,19.99
2023-01-21T13:04:01.959Z,20.04
2023-01-21T13:06:37.973Z,20.11
2023-01-21T13:09:13.149Z,20.17
2023-01-21T13:11:39.421Z,20.24
2023-01-21T13:14:05.622Z,20.27
2023-01-21T13:16:31.872Z,20.31
2023-01-21T13:18:58.776Z,20.33
2023-01-21T13:21:27.550Z,20.34
2023-01-21T13:23:54.802Z,20.32
2023-01-21T13:26:21.064Z,20.31
2023-01-21T13:28:47.457Z,20.29
2023-01-21T13:31:13.803Z,20.23
2023-01-21T13:33:40.078Z,20.17
2023-01-21T13:36:06.296Z,20.13
2023-01-21T13:38:32.490Z,20.13
2023-01-21T13:40:59.439Z,20.14
2023-01-21T13:43:25.655Z,20.10
2023-01-21T13:45:52.159Z,20.23
2023-01-21T13:48:18.391Z,20.25
2023-01-21T13:50:44.704Z,20.26
2023-01-21T13:53:10.945Z,20.24
2023-01-21T13:55:37.222Z,20.20
2023-01-21T13:58:03.431Z,20.15
2023-01-21T14:00:30.613Z,20.10
2023-01-21T14:02:57.431Z,20.03
2023-01-21T14:05:23.950Z,19.98
2023-01-21T14:07:50.327Z,19.97
2023-01-21T14:10:17.046Z,19.98
2023-01-21T14:12:45.568Z,20.00
2023-01-21T14:15:16.629Z,20.01
2023-01-21T14:17:56.572Z,20.05
2023-01-21T14:20:23.557Z,20.09
2023-01-21T14:22:50.605Z,20.13
2023-01-21T14:25:16.839Z,20.20
2023-01-21T14:27:43.191Z,20.26
2023-01-21T14:30:09.424Z,20.32
2023-01-21T14:32:35.663Z,20.39
2023-01-21T14:35:02.449Z,20.46
2023-01-21T14:37:28.703Z,20.52
2023-01-21T14:39:55.009Z,20.53
2023-01-21T14:42:21.247Z,20.55
2023-01-21T14:44:47.483Z,20.58
2023-01-21T14:47:13.724Z,20.63
2023-01-21T14:49:39.934Z,20.58
2023-01-21T14:52:06.952Z,20.66
2023-01-21T14:54:33.182Z,20.69
2023-01-21T14:57:04.296Z,20.73
2023-01-21T14:59:36.396Z,20.77
2023-01-21T15:02:02.646Z,20.79
2023-01-21T15:04:29.038Z,20.83
2023-01-21T15:06:55.304Z,20.86
2023-01-21T15:09:21.497Z,20.85
2023-01-21T15:11:48.555Z,20.84
2023-01-21T15:14:14.750Z,20.87
2023-01-21T15:16:41.058Z,20.91
2023-01-21T15:19:07.993Z,20.92
2023-01-21T15:21:35.028Z,20.92
2023-01-21T15:24:01.286Z,20.91
2023-01-21T15:26:27.486Z,20.94
2023-01-21T15:28:53.770Z,20.96
2023-01-21T15:31:20.142Z,20.95
2023-01-21T15:33:46.445Z,20.95
2023-01-21T15:36:12.743Z,20.95
2023-01-21T15:38:39.062Z,20.94
2023-01-21T15:41:06.165Z,20.96
2023-01-21T15:43:32.385Z,20.98
2023-01-21T15:45:58.697Z,21.02
2023-01-21T15:48:36.491Z,21.05
2023-01-21T15:51:08.145Z,21.09
2023-01-21T15:53:34.522Z,21.11
2023-01-21T15:56:00.713Z,21.11
2023-01-21T15:58:27.021Z,21.09
2023-01-21T16:00:53.281Z,21.01
2023-01-21T16:03:19.568Z,20.97
2023-01-21T16:05:46.450Z,20.94
2023-01-21T16:08:12.683Z,20.91
2023-01-21T16:10:38.936Z,20.92
2023-01-21T16:13:05.522Z,20.95
2023-01-21T16:15:31.772Z,20.98
2023-01-21T16:17:59.187Z,21.00
2023-01-21T16:20:25.382Z,21.02
2023-01-21T16:22:51.608Z,21.04
2023-01-21T16:25:18.181Z,21.08
2023-01-21T16:27:45.604Z,21.08
2023-01-21T16:30:11.876Z,21.08
2023-01-21T16:32:38.970Z,21.10
2023-01-21T16:35:05.235Z,21.13
2023-01-21T16:37:31.432Z,21.15
2023-01-21T16:39:57.638Z,21.15
2023-01-21T16:42:23.961Z,21.15
2023-01-21T16:44:50.343Z,21.18
2023-01-21T16:47:17.463Z,21.21
2023-01-21T16:49:43.654Z,21.21
2023-01-21T16:52:09.872Z,21.22
2023-01-21T16:54:36.144Z,21.22
2023-01-21T16:57:04.049Z,21.26
2023-01-21T16:59:31.065Z,21.28
2023-01-21T17:01:57.390Z,21.29
2023-01-21T17:04:24.550Z,21.29
2023-01-21T17:06:50.799Z,21.26
2023-01-21T17:09:17.377Z,21.21
2023-01-21T17:11:43.768Z,21.15
2023-01-21T17:14:10.462Z,21.09
2023-01-21T17:16:36.668Z,21.03
2023-01-21T17:19:04.044Z,20.95
2023-01-21T17:21:30.244Z,20.86
2023-01-21T17:23:56.625Z,20.82
2023-01-21T17:26:23.511Z,20.79
2023-01-21T17:28:50.081Z,20.77
2023-01-21T17:31:16.400Z,20.74
2023-01-21T17:33:42.960Z,20.71
2023-01-21T17:36:09.343Z,20.72
2023-01-21T17:38:35.523Z,20.70
2023-01-21T17:41:01.805Z,20.74
2023-01-21T17:43:28.933Z,20.77
2023-01-21T17:45:55.413Z,20.79
2023-01-21T17:48:21.773Z,20.85
2023-01-21T17:50:48.121Z,20.90
2023-01-21T17:53:14.316Z,20.94
2023-01-21T17:55:40.541Z,20.99
2023-01-21T17:58:07.523Z,21.05
2023-01-21T18:00:33.774Z,21.09
2023-01-21T18:03:00.232Z,21.09
2023-01-21T18:05:26.534Z,21.10
2023-01-21T18:07:52.733Z,21.14
2023-01-21T18:10:19.019Z,21.20
2023-01-21T18:12:45.262Z,21.24
2023-01-21T18:15:11.822Z,21.26
2023-01-21T18:17:38.658Z,21.30
2023-01-21T18:20:04.931Z,21.33
2023-01-21T18:22:31.165Z,21.33
2023-01-21T18:24:57.627Z,21.33
2023-01-21T18:27:26.035Z,21.32
2023-01-21T18:29:52.506Z,21.30
2023-01-21T18:32:18.707Z,21.25
2023-01-21T18:34:57.291Z,21.22
2023-01-21T18:37:25.681Z,21.07
2023-01-21T18:39:51.896Z,20.91
2023-01-21T18:42:24.322Z,20.83
2023-01-21T18:44:51.462Z,20.82
2023-01-21T18:47:17.694Z,20.83
2023-01-21T18:49:43.900Z,20.79
2023-01-21T18:52:10.229Z,20.88
2023-01-21T18:54:36.656Z,20.89
2023-01-21T18:57:03.358Z,20.88
2023-01-21T18:59:29.566Z,20.86
2023-01-21T19:01:55.895Z,20.90
2023-01-21T19:04:22.212Z,20.96
2023-01-21T19:06:48.412Z,21.03
2023-01-21T19:09:15.538Z,21.08
2023-01-21T19:11:41.715Z,21.11
2023-01-21T19:14:07.909Z,21.14
2023-01-21T19:16:34.242Z,21.18
2023-01-21T19:19:00.502Z,21.21
2023-01-21T19:21:26.872Z,21.21
2023-01-21T19:23:53.073Z,21.20
2023-01-21T19:26:19.268Z,21.18
2023-01-21T19:28:45.671Z,21.12
2023-01-21T19:31:11.963Z,21.08
2023-01-21T19:33:38.259Z,21.03
2023-01-21T19:36:04.880Z,21.00
2023-01-21T19:38:31.103Z,20.98
2023-01-21T19:40:57.313Z,20.98
2023-01-21T19:43:23.949Z,21.00
2023-01-21T19:45:50.155Z,21.03
2023-01-21T19:48:16.397Z,21.09
2023-01-21T19:50:43.176Z,21.16
2023-01-21T19:53:09.408Z,21.22
2023-01-21T19:55:35.685Z,21.27
2023-01-21T19:58:01.923Z,21.29
2023-01-21T20:00:31.129Z,21.30
2023-01-21T20:02:57.352Z,21.33
2023-01-21T20:05:23.749Z,21.37
2023-01-21T20:07:49.925Z,21.37
2023-01-21T20:10:16.870Z,21.37
2023-01-21T20:12:44.332Z,21.40
2023-01-21T20:15:10.691Z,21.43
2023-01-21T20:17:36.896Z,21.43
2023-01-21T20:20:03.331Z,21.42
2023-01-21T20:22:29.995Z,21.37
2023-01-21T20:24:56.351Z,21.31
2023-01-21T20:27:22.689Z,21.25
2023-01-21T20:30:02.787Z,21.22
2023-01-21T20:32:35.226Z,21.16
2023-01-21T20:35:01.588Z,21.14
2023-01-21T20:37:27.784Z,21.15
2023-01-21T20:39:54.012Z,21.13
2023-01-21T20:42:20.235Z,21.09
2023-01-21T20:44:46.460Z,21.06
2023-01-21T20:47:12.668Z,20.95
2023-01-21T20:49:38.887Z,20.98
2023-01-21T20:52:05.073Z,20.95
2023-01-21T20:54:31.263Z,20.90
2023-01-21T20:56:57.448Z,20.87
2023-01-21T20:59:23.702Z,20.82
2023-01-21T21:01:49.923Z,20.78
2023-01-21T21:04:16.479Z,20.75
2023-01-21T21:06:42.773Z,20.73
2023-01-21T21:09:09.121Z,20.74
2023-01-21T21:11:35.434Z,20.75
2023-01-21T21:14:01.740Z,20.75
2023-01-21T21:16:28.090Z,20.70
2023-01-21T21:18:54.301Z,20.60
2023-01-21T21:21:23.510Z,20.50
2023-01-21T21:23:49.983Z,20.35
2023-01-21T21:26:16.179Z,20.23
2023-01-21T21:28:42.389Z,20.11
2023-01-21T21:31:08.994Z,20.00
2023-01-21T21:33:35.305Z,19.91
2023-01-21T21:36:01.560Z,19.85
2023-01-21T21:38:27.758Z,19.79
2023-01-21T21:40:53.973Z,19.70
2023-01-21T21:43:20.300Z,19.61
2023-01-21T21:45:46.560Z,19.54
2023-01-21T21:48:12.815Z,19.46
2023-01-21T21:50:39.244Z,19.39
2023-01-21T21:53:05.482Z,19.31
2023-01-21T21:55:31.707Z,19.23
2023-01-21T21:57:58.171Z,19.16
2023-01-21T22:00:24.364Z,19.07
2023-01-21T22:02:50.553Z,19.01
2023-01-21T22:05:17.089Z,18.96
2023-01-21T22:07:43.595Z,18.90
2023-01-21T22:10:09.821Z,18.85
2023-01-21T22:12:36.049Z,18.81
2023-01-21T22:15:02.230Z,18.75
2023-01-21T22:17:28.416Z,18.71
2023-01-21T22:19:54.648Z,18.65
2023-01-21T22:22:20.826Z,18.62
2023-01-21T22:24:47.129Z,18.57
2023-01-21T22:27:13.321Z,18.52
2023-01-21T22:29:39.526Z,18.48
2023-01-21T22:32:05.768Z,18.42
2023-01-21T22:34:31.953Z,18.27
2023-01-21T22:36:58.399Z,18.09
2023-01-21T22:39:24.608Z,17.91
2023-01-21T22:41:50.853Z,17.74
2023-01-21T22:44:17.076Z,17.60
2023-01-21T22:46:43.288Z,17.47
2023-01-21T22:49:09.524Z,17.34
2023-01-21T22:51:35.924Z,17.21
2023-01-21T22:54:02.199Z,17.11
2023-01-21T22:56:49.717Z,17.00
2023-01-21T22:59:14.640Z,16.90
2023-01-21T23:01:41.015Z,16.79
2023-01-21T23:04:07.331Z,16.70
2023-01-21T23:06:33.908Z,16.60
2023-01-21T23:09:00.658Z,16.52
2023-01-21T23:11:26.857Z,16.44
2023-01-21T23:13:53.104Z,16.36
2023-01-21T23:16:19.441Z,16.28
2023-01-21T23:18:45.675Z,16.21
2023-01-21T23:21:11.946Z,16.13
2023-01-21T23:23:38.304Z,16.07
2023-01-21T23:26:04.757Z,15.99
2023-01-21T23:28:30.969Z,15.91
2023-01-21T23:30:57.265Z,15.84
2023-01-21T23:33:23.709Z,15.77
2023-01-21T23:35:50.027Z,15.70
2023-01-21T23:38:16.227Z,15.54
2023-01-21T23:40:42.619Z,15.56
2023-01-21T23:43:08.823Z,15.50
2023-01-21T23:45:35.079Z,15.43
2023-01-21T23:48:01.323Z,15.38
2023-01-21T23:50:27.734Z,15.34
2023-01-21T23:52:54.017Z,15.28
2023-01-21T23:55:20.352Z,15.22
2023-01-21T23:57:46.720Z,15.16
